Time;durP1;ratioP1;P1;durP2;ratioP2;P2;SDS_P1;SDS_P2;PMS_P1;PMS_P2;Temp;Humidity;BMP_temperature;BMP_pressure;BME280_temperature;BME280_humidity;BME280_pressure;Samples;Min_cycle;Max_cycle;Signal;HPM_P1;HPM_P2
2022/07/11 00:01:36;;;;;;;;;2.25;2.25;;;;;24.33;39.25;101800.03;4918342;28;46745;-46
2022/07/11 00:04:01;;;;;;;;;3.00;2.00;;;;;24.33;39.30;101795.56;4917732;28;51180;-45
2022/07/11 00:06:27;;;;;;;;;3.25;3.00;;;;;24.32;39.59;101799.16;4918555;28;45319;-44
2022/07/11 00:08:52;;;;;;;;;2.75;2.75;;;;;24.32;39.42;101793.84;4918082;28;45623;-48
2022/07/11 00:11:17;;;;;;;;;3.00;3.00;;;;;24.32;39.35;101798.31;4918220;28;46081;-50
2022/07/11 00:13:43;;;;;;;;;2.50;2.50;;;;;24.30;39.61;101801.06;4900978;28;45685;-48
2022/07/11 00:16:08;;;;;;;;;2.00;2.00;;;;;24.30;39.52;101795.75;4918077;28;45989;-46
2022/07/11 00:18:33;;;;;;;;;2.00;2.00;;;;;24.31;39.29;101794.78;4918468;28;45479;-48
2022/07/11 00:20:59;;;;;;;;;3.25;2.25;;;;;24.31;39.49;101802.75;4917971;28;46381;-48
2022/07/11 00:23:24;;;;;;;;;2.00;2.00;;;;;24.32;39.93;101793.84;4918222;28;45398;-52
2022/07/11 00:25:49;;;;;;;;;2.00;2.00;;;;;24.32;39.92;101793.84;4900849;28;53099;-45
2022/07/11 00:28:15;;;;;;;;;2.50;2.00;;;;;24.33;39.64;101798.22;4918307;28;45454;-52
2022/07/11 00:30:40;;;;;;;;;4.00;2.50;;;;;24.32;39.90;101809.75;4918110;28;46066;-53
2022/07/11 00:33:05;;;;;;;;;2.50;2.50;;;;;24.33;39.25;101797.38;4917770;28;45446;-52
2022/07/11 00:35:31;;;;;;;;;2.00;2.00;;;;;24.32;39.66;101804.44;4918302;28;45452;-51
2022/07/11 00:37:56;;;;;;;;;2.50;2.00;;;;;24.32;39.72;101803.59;4918088;28;45390;-45
2022/07/11 00:40:21;;;;;;;;;2.00;2.00;;;;;24.33;39.80;101795.56;4917529;28;55240;-44
2022/07/11 00:42:46;;;;;;;;;3.00;3.00;;;;;24.32;39.45;101798.31;4918166;28;45286;-45
2022/07/11 00:45:12;;;;;;;;;2.00;2.00;;;;;24.31;39.86;101797.44;4917521;28;45305;-44
2022/07/11 00:47:37;;;;;;;;;3.00;3.00;;;;;24.30;39.33;101790.47;4918160;28;45586;-46
2022/07/11 00:50:03;;;;;;;;;2.00;1.75;;;;;24.31;39.78;101786.84;4917522;28;46064;-44
2022/07/11 00:52:29;;;;;;;;;3.50;2.25;;;;;24.30;39.52;101782.50;4917953;28;45275;-45
2022/07/11 00:54:55;;;;;;;;;4.00;2.00;;;;;24.29;39.78;101772.84;4900641;28;45373;-44
2022/07/11 00:57:21;;;;;;;;;3.00;3.00;;;;;24.29;39.69;101786.09;4918082;28;45262;-44
2022/07/11 00:59:47;;;;;;;;;2.00;2.00;;;;;24.28;39.78;101779.09;4917854;28;45398;-44
2022/07/11 01:02:13;;;;;;;;;1.50;1.00;;;;;24.27;39.84;101782.69;4917349;28;45379;-45
2022/07/11 01:04:38;;;;;;;;;1.50;1.00;;;;;24.26;39.94;101778.31;4917688;28;45280;-46
2022/07/11 01:07:04;;;;;;;;;2.00;2.00;;;;;24.25;39.38;101771.31;4917859;28;45337;-44
2022/07/11 01:09:29;;;;;;;;;2.75;2.75;;;;;24.23;39.59;101775.84;4917569;28;46103;-44
2022/07/11 01:11:55;;;;;;;;;3.00;3.00;;;;;24.23;39.24;101767.88;4917558;28;45331;-44
2022/07/11 01:14:21;;;;;;;;;1.75;0.75;;;;;24.23;39.71;101767.88;4917652;28;45355;-44
2022/07/11 01:16:46;;;;;;;;;4.75;2.00;;;;;24.23;39.77;101767.88;4918288;28;45296;-49
2022/07/11 01:19:12;;;;;;;;;3.00;2.00;;;;;24.22;39.40;101763.53;4917204;28;46073;-48
2022/07/11 01:21:41;;;;;;;;;1.50;1.00;;;;;24.22;39.40;101772.34;4919816;28;45423;-49
2022/07/11 01:24:08;;;;;;;;;2.00;2.00;;;;;24.23;39.89;101773.19;4920573;28;45394;-46
2022/07/11 01:26:34;;;;;;;;;1.00;1.00;;;;;24.22;39.59;101767.06;4921054;28;45430;-44
2022/07/11 01:29:13;;;;;;;;;1.00;1.00;;;;;24.23;39.97;101765.25;4920071;28;46260;-47
2022/07/11 01:31:40;;;;;;;;;2.75;2.00;;;;;24.23;39.32;101767.88;4920901;28;45384;-49
2022/07/11 01:34:05;;;;;;;;;2.50;2.50;;;;;24.20;39.54;101765.41;4920539;28;45459;-51
2022/07/11 01:36:31;;;;;;;;;2.00;2.00;;;;;24.17;39.94;101769.09;4920965;28;45533;-51
2022/07/11 01:38:56;;;;;;;;;2.25;2.25;;;;;24.14;40.20;101773.72;4920335;28;45274;-53
2022/07/11 01:41:22;;;;;;;;;3.00;3.00;;;;;24.12;39.71;101770.28;4920541;28;45484;-45
2022/07/11 01:43:47;;;;;;;;;3.50;2.00;;;;;24.07;39.85;101763.47;4920756;28;45462;-47
2022/07/11 01:46:13;;;;;;;;;2.00;2.00;;;;;24.05;39.61;101759.19;4920440;28;45162;-48
2022/07/11 01:48:38;;;;;;;;;2.00;2.00;;;;;24.03;39.81;101761.94;4920297;28;46157;-47
2022/07/11 01:51:04;;;;;;;;;5.25;2.00;;;;;24.01;39.57;101769.09;4920165;28;45818;-49
2022/07/11 01:53:29;;;;;;;;;1.75;1.75;;;;;24.01;40.08;101769.09;4920624;28;45515;-47
2022/07/11 01:55:54;;;;;;;;;1.00;1.00;;;;;24.00;39.70;101762.09;4919734;28;49214;-46
2022/07/11 01:58:20;;;;;;;;;1.50;1.50;;;;;23.98;40.02;101763.97;4920615;28;45923;-48
2022/07/11 02:00:45;;;;;;;;;2.00;2.00;;;;;23.98;39.91;101763.13;4920364;28;45379;-50
2022/07/11 02:03:10;;;;;;;;;2.00;2.00;;;;;23.99;39.56;101764.84;4920218;28;45367;-48
2022/07/11 02:05:38;;;;;;;;;1.25;1.25;;;;;23.98;39.69;101760.47;4920301;28;45380;-44
2022/07/11 02:08:13;;;;;;;;;2.00;2.00;;;;;23.97;39.85;101766.69;4919826;28;46193;-46
2022/07/11 02:10:49;;;;;;;;;2.00;2.00;;;;;23.96;39.54;101765.00;4920152;28;45761;-47
2022/07/11 02:13:17;;;;;;;;;3.00;2.00;;;;;23.95;39.37;101764.16;4902719;28;45237;-44
2022/07/11 02:15:44;;;;;;;;;2.00;2.00;;;;;23.94;39.90;101765.91;4920437;28;45505;-45
2022/07/11 02:18:10;;;;;;;;;2.50;2.50;;;;;23.94;39.82;101765.91;4919789;28;45944;-45
2022/07/11 02:20:37;;;;;;;;;2.75;2.75;;;;;23.92;39.74;101766.94;4919985;28;45824;-45
2022/07/11 02:23:03;;;;;;;;;2.00;2.00;;;;;23.93;40.19;101766.84;4918544;28;45376;-49
2022/07/11 02:25:30;;;;;;;;;2.75;2.00;;;;;23.94;39.71;101770.34;4919903;28;45185;-44
2022/07/11 02:27:55;;;;;;;;;3.00;2.75;;;;;23.93;40.05;101768.63;4919281;28;46208;-45
2022/07/11 02:30:21;;;;;;;;;2.00;2.00;;;;;23.94;39.89;101767.69;4919868;28;45437;-44
2022/07/11 02:32:47;;;;;;;;;2.00;2.00;;;;;23.94;39.91;101768.53;4919771;28;45281;-48
2022/07/11 02:35:12;;;;;;;;;2.00;2.00;;;;;23.94;40.06;101767.69;4919858;28;45265;-51
2022/07/11 02:37:38;;;;;;;;;2.50;2.50;;;;;23.93;40.09;101768.63;4902398;28;48026;-45
2022/07/11 02:40:04;;;;;;;;;2.00;2.00;;;;;23.92;39.91;101758.97;4919193;28;49912;-54
2022/07/11 02:42:29;;;;;;;;;2.00;1.00;;;;;23.91;40.09;101762.56;4919695;28;45447;-55
2022/07/11 02:44:54;;;;;;;;;2.00;2.00;;;;;23.88;39.89;101762.72;4919400;28;45533;-54
2022/07/11 02:47:20;;;;;;;;;4.00;3.50;;;;;23.87;40.01;101766.31;4919878;28;45355;-52
2022/07/11 02:49:47;;;;;;;;;1.00;1.00;;;;;23.85;40.13;101762.91;4919613;28;45408;-55
2022/07/11 02:52:13;;;;;;;;;1.75;1.75;;;;;23.85;40.17;101762.91;4919370;28;45444;-47
2022/07/11 02:54:38;;;;;;;;;2.00;2.00;;;;;23.84;39.89;101766.50;4919612;28;45343;-44
2022/07/11 02:57:04;;;;;;;;;2.00;2.00;;;;;23.82;39.95;101763.91;4919120;28;45300;-44
2022/07/11 02:59:29;;;;;;;;;2.00;2.00;;;;;23.82;40.16;101765.72;4919234;28;45347;-48
2022/07/11 03:01:55;;;;;;;;;3.00;2.00;;;;;23.82;40.11;101760.44;4919168;28;45278;-49
2022/07/11 03:04:20;;;;;;;;;2.00;2.00;;;;;23.80;40.29;101762.31;4919732;28;45317;-46
2022/07/11 03:06:46;;;;;;;;;2.00;2.00;;;;;23.77;40.18;101758.88;4919041;28;46221;-52
2022/07/11 03:09:11;;;;;;;;;2.00;2.00;;;;;23.77;40.39;101760.69;4919195;28;45734;-50
2022/07/11 03:11:37;;;;;;;;;3.75;2.50;;;;;23.77;40.07;101758.03;4919312;28;45306;-51
2022/07/11 03:14:02;;;;;;;;;2.50;2.50;;;;;23.76;40.21;101759.81;4919215;28;45627;-53
2022/07/11 03:16:28;;;;;;;;;6.75;2.50;;;;;23.75;40.00;101744.91;4919111;28;45411;-50
2022/07/11 03:18:53;;;;;;;;;1.75;1.75;;;;;23.76;40.07;101745.75;4918969;28;45292;-48
2022/07/11 03:21:19;;;;;;;;;2.00;2.00;;;;;23.77;39.98;101750.94;4919518;28;45390;-50
2022/07/11 03:23:44;;;;;;;;;2.00;2.00;;;;;23.76;40.18;101749.22;4919406;28;45292;-55
2022/07/11 03:26:09;;;;;;;;;2.25;2.25;;;;;23.75;39.94;101749.31;4901257;28;57006;-51
2022/07/11 03:28:35;;;;;;;;;2.00;2.00;;;;;23.74;40.45;101747.63;4918357;28;59369;-55
2022/07/11 03:31:00;;;;;;;;;2.75;2.75;;;;;23.74;40.43;101759.06;4918786;28;45443;-51
2022/07/11 03:33:25;;;;;;;;;3.00;3.00;;;;;23.74;40.25;101755.56;4919167;28;45369;-54
2022/07/11 03:35:51;;;;;;;;;2.00;2.00;;;;;23.73;40.34;101754.72;4919215;28;46081;-51
2022/07/11 03:38:20;;;;;;;;;4.00;2.50;;;;;23.73;40.13;101756.50;4918172;28;45361;-49
2022/07/11 03:40:45;;;;;;;;;3.25;3.00;;;;;23.73;40.57;101757.38;4919006;28;45310;-48
2022/07/11 03:43:11;;;;;;;;;3.00;3.00;;;;;23.73;40.47;101759.13;4918660;28;45521;-49
2022/07/11 03:45:37;;;;;;;;;2.25;2.25;;;;;23.71;39.98;101756.59;4917323;28;54252;-46
2022/07/11 03:48:03;;;;;;;;;3.25;3.25;;;;;23.72;40.63;101762.72;4918550;28;45431;-47
2022/07/11 03:50:29;;;;;;;;;2.25;2.25;;;;;23.70;40.21;101764.63;4901587;28;45635;-49
2022/07/11 03:52:55;;;;;;;;;3.00;3.00;;;;;23.70;40.42;101762.81;4918685;28;45482;-45
2022/07/11 03:55:21;;;;;;;;;3.00;3.00;;;;;23.69;40.18;101752.31;4918805;28;46279;-47
2022/07/11 03:57:46;;;;;;;;;2.50;2.50;;;;;23.68;40.48;101767.31;4918705;28;45865;-46
2022/07/11 04:00:12;;;;;;;;;3.00;3.00;;;;;23.69;40.40;101754.97;4918544;28;45409;-44
2022/07/11 04:02:38;;;;;;;;;3.00;3.00;;;;;23.69;40.33;101763.75;4918682;28;45548;-45
2022/07/11 04:05:03;;;;;;;;;3.75;3.75;;;;;23.69;40.89;101755.81;4918004;28;46076;-46
2022/07/11 04:07:29;;;;;;;;;3.00;3.00;;;;;23.70;40.58;101757.53;4918540;28;45376;-47
2022/07/11 04:09:55;;;;;;;;;3.00;3.00;;;;;23.70;40.45;101757.53;4917831;28;45226;-47
2022/07/11 04:12:20;;;;;;;;;3.00;3.00;;;;;23.70;40.91;101759.31;4918910;28;45391;-46
2022/07/11 04:14:46;;;;;;;;;3.50;3.50;;;;;23.69;40.52;101753.16;4918373;28;45272;-46
2022/07/11 04:17:11;;;;;;;;;2.50;2.50;;;;;23.66;40.50;101753.31;4918094;28;45206;-46
2022/07/11 04:19:38;;;;;;;;;2.00;2.00;;;;;23.65;41.06;101756.91;4918488;28;45765;-46
2022/07/11 04:22:04;;;;;;;;;3.00;3.00;;;;;23.63;40.85;101751.69;4918419;28;45258;-46
2022/07/11 04:24:29;;;;;;;;;3.25;3.25;;;;;23.63;40.83;101754.34;4918130;28;45419;-47
2022/07/11 04:26:54;;;;;;;;;3.75;3.75;;;;;23.63;40.97;101756.16;4918014;28;45396;-45
2022/07/11 04:29:19;;;;;;;;;3.75;3.00;;;;;23.60;40.65;101753.66;4918338;28;45297;-45
2022/07/11 04:31:45;;;;;;;;;3.00;3.00;;;;;23.60;40.72;101756.31;4917720;28;45276;-47
2022/07/11 04:34:10;;;;;;;;;3.00;3.00;;;;;23.60;40.90;101759.78;4917666;28;50171;-47
2022/07/11 04:36:35;;;;;;;;;2.00;2.00;;;;;23.60;40.99;101758.97;4917571;28;57098;-45
2022/07/11 04:39:01;;;;;;;;;2.50;2.00;;;;;23.61;40.58;101765.97;4918062;28;45389;-48
2022/07/11 04:41:26;;;;;;;;;3.00;3.00;;;;;23.61;40.88;101776.53;4918291;28;45364;-49
2022/07/11 04:43:51;;;;;;;;;5.00;3.75;;;;;23.61;40.81;101769.44;4917888;28;57637;-46
2022/07/11 04:46:17;;;;;;;;;5.00;3.50;;;;;23.62;41.01;101781.75;4917693;28;45375;-46
2022/07/11 04:48:42;;;;;;;;;3.75;3.75;;;;;23.62;40.67;101778.25;4917886;28;45301;-46
2022/07/11 04:51:08;;;;;;;;;3.00;3.00;;;;;23.62;40.98;101784.38;4918133;28;45356;-45
2022/07/11 04:53:34;;;;;;;;;3.00;3.00;;;;;23.63;40.88;101780.81;4917875;28;46193;-50
2022/07/11 04:56:00;;;;;;;;;3.75;3.50;;;;;23.63;41.04;101779.97;4919198;28;45256;-47
2022/07/11 04:58:25;;;;;;;;;3.00;3.00;;;;;23.64;41.14;101779.03;4921454;28;45296;-45
2022/07/11 05:00:51;;;;;;;;;3.25;3.00;;;;;23.65;41.08;101783.38;4921787;28;45316;-49
2022/07/11 05:03:16;;;;;;;;;0.50;0.00;;;;;23.65;40.52;101788.66;4920987;28;45547;-47
2022/07/11 05:05:42;;;;;;;;;4.25;3.00;;;;;23.66;41.19;101782.44;4921029;28;45285;-48
2022/07/11 05:08:07;;;;;;;;;3.50;3.50;;;;;23.64;41.02;101781.69;4921159;28;46032;-45
2022/07/11 05:10:34;;;;;;;;;4.25;4.25;;;;;23.63;40.89;101783.47;4921408;28;45502;-52
2022/07/11 05:12:59;;;;;;;;;3.25;3.25;;;;;23.64;41.04;101781.69;4920725;28;46119;-50
2022/07/11 05:15:25;;;;;;;;;4.00;4.00;;;;;23.64;40.95;101786.97;4921000;28;45335;-47
2022/07/11 05:17:50;;;;;;;;;4.25;3.75;;;;;23.63;41.03;101786.09;4921460;28;45311;-49
2022/07/11 05:20:16;;;;;;;;;7.00;4.00;;;;;23.65;41.20;101783.38;4920814;28;45536;-45
2022/07/11 05:22:41;;;;;;;;;4.00;3.25;;;;;23.65;40.90;101793.09;4920733;28;45414;-47
2022/07/11 05:25:07;;;;;;;;;5.50;3.75;;;;;23.66;41.46;101798.31;4920395;28;45402;-53
2022/07/11 05:27:33;;;;;;;;;3.00;3.00;;;;;23.67;41.62;101797.38;4920775;28;45515;-49
2022/07/11 05:29:58;;;;;;;;;4.00;4.00;;;;;23.67;41.33;101797.38;4920850;28;45325;-52
2022/07/11 05:32:23;;;;;;;;;4.50;4.50;;;;;23.66;41.00;101806.25;4920064;28;65279;-53
2022/07/11 05:34:48;;;;;;;;;3.00;3.00;;;;;23.68;41.50;101800.91;4921034;28;45387;-55
2022/07/11 05:37:14;;;;;;;;;4.00;4.00;;;;;23.68;41.21;101809.69;4903472;28;45267;-48
2022/07/11 05:39:39;;;;;;;;;2.00;2.00;;;;;23.69;41.31;101808.75;4920785;28;45214;-46
2022/07/11 05:42:05;;;;;;;;;4.00;4.00;;;;;23.69;41.44;101806.09;4920142;28;45246;-48
2022/07/11 05:44:31;;;;;;;;;3.00;3.00;;;;;23.71;41.37;101814.81;4920472;28;45278;-46
2022/07/11 05:47:00;;;;;;;;;4.00;4.00;;;;;23.70;41.32;101807.81;4920402;28;45376;-46
2022/07/11 05:49:26;;;;;;;;;4.00;4.00;;;;;23.70;41.05;101801.66;4920724;28;45425;-45
2022/07/11 05:51:51;;;;;;;;;4.50;4.50;;;;;23.70;41.08;101794.56;4920592;28;46237;-48
2022/07/11 05:54:16;;;;;;;;;4.00;4.00;;;;;23.70;41.35;101802.50;4919750;28;52798;-48
2022/07/11 05:56:42;;;;;;;;;4.25;3.75;;;;;23.71;41.25;101804.22;4920536;28;45412;-46
2022/07/11 05:59:08;;;;;;;;;9.75;3.75;;;;;23.73;41.17;101807.66;4920307;28;45474;-48
2022/07/11 06:01:34;;;;;;;;;4.00;4.00;;;;;23.73;41.15;101805.00;4920215;28;45424;-47
2022/07/11 06:04:00;;;;;;;;;5.00;4.25;;;;;23.73;41.24;101802.34;4919885;28;45251;-47
2022/07/11 06:06:25;;;;;;;;;3.75;3.75;;;;;23.73;40.97;101801.47;4920232;28;45245;-47
2022/07/11 06:08:51;;;;;;;;;4.00;4.00;;;;;23.74;41.49;101798.78;4920003;28;45600;-47
2022/07/11 06:11:16;;;;;;;;;5.00;5.00;;;;;23.75;41.67;101804.91;4919734;28;46157;-47
2022/07/11 06:13:47;;;;;;;;;5.25;4.00;;;;;23.73;41.25;101805.00;4919906;28;45349;-47
2022/07/11 06:16:12;;;;;;;;;4.00;4.00;;;;;23.75;41.36;101808.44;4919869;28;45382;-46
2022/07/11 06:18:39;;;;;;;;;4.50;4.50;;;;;23.75;41.05;101808.44;4920451;28;45251;-49
2022/07/11 06:21:05;;;;;;;;;4.00;4.00;;;;;23.76;41.26;101812.75;4919730;28;45652;-45
2022/07/11 06:23:31;;;;;;;;;5.00;4.25;;;;;23.76;41.62;101815.41;4919952;28;45188;-45
2022/07/11 06:25:57;;;;;;;;;4.00;4.00;;;;;23.76;41.33;101817.22;4919761;28;45232;-51
2022/07/11 06:28:22;;;;;;;;;5.75;4.00;;;;;23.78;41.52;101816.19;4920319;28;45363;-47
2022/07/11 06:30:48;;;;;;;;;4.75;4.75;;;;;23.78;41.50;101810.88;4918440;28;48116;-44
2022/07/11 06:33:18;;;;;;;;;6.75;4.75;;;;;23.80;41.13;101812.59;4919255;28;45205;-46
2022/07/11 06:35:44;;;;;;;;;4.50;4.25;;;;;23.82;41.10;101810.72;4920008;28;45386;-46
2022/07/11 06:38:10;;;;;;;;;5.00;5.00;;;;;23.83;41.57;101815.09;4902517;28;45419;-45
2022/07/11 06:40:36;;;;;;;;;3.25;3.25;;;;;23.84;41.50;101816.81;4919730;28;45415;-46
2022/07/11 06:43:01;;;;;;;;;4.50;4.50;;;;;23.86;41.48;101809.63;4919428;28;45760;-46
2022/07/11 06:45:30;;;;;;;;;6.00;4.25;;;;;23.87;40.97;101816.63;4919518;28;45341;-47
2022/07/11 06:47:55;;;;;;;;;5.25;5.00;;;;;23.88;41.00;101807.72;4919635;28;45474;-52
2022/07/11 06:50:20;;;;;;;;;4.50;4.50;;;;;23.88;41.63;101811.25;4919778;28;46312;-51
2022/07/11 06:52:47;;;;;;;;;3.50;3.50;;;;;23.90;41.15;101797.91;4919595;28;45408;-51
2022/07/11 06:55:12;;;;;;;;;5.75;5.00;;;;;23.91;41.53;101799.63;4902277;28;45332;-54
2022/07/11 06:57:38;;;;;;;;;4.00;3.75;;;;;23.93;41.43;101808.34;4919774;28;45522;-50
2022/07/11 07:00:05;;;;;;;;;5.50;4.00;;;;;23.94;41.23;101799.47;4919135;28;45467;-51
2022/07/11 07:02:30;;;;;;;;;4.00;4.00;;;;;23.98;41.55;101802.84;4919400;28;45251;-53
2022/07/11 07:04:58;;;;;;;;;3.25;3.25;;;;;24.00;41.08;101804.44;4919174;28;45526;-51
2022/07/11 07:07:24;;;;;;;;;3.25;3.25;;;;;24.01;41.43;101808.81;4918618;28;45821;-46
2022/07/11 07:09:49;;;;;;;;;4.75;3.25;;;;;24.01;41.26;101806.16;4919525;28;46052;-53
2022/07/11 07:12:15;;;;;;;;;6.00;5.00;;;;;24.02;41.43;101805.22;4919037;28;45507;-52
2022/07/11 07:14:40;;;;;;;;;2.00;2.00;;;;;24.04;40.90;101808.66;4918029;28;45449;-53
2022/07/11 07:17:06;;;;;;;;;3.00;3.00;;;;;24.04;40.74;101805.13;4919297;28;45305;-56
2022/07/11 07:19:31;;;;;;;;;3.50;3.50;;;;;24.05;41.26;101810.38;4918897;28;45918;-52
2022/07/11 07:21:56;;;;;;;;;4.50;3.00;;;;;24.06;41.06;101814.72;4918955;28;45436;-46
2022/07/11 07:24:22;;;;;;;;;3.25;3.25;;;;;24.08;40.92;101812.84;4919168;28;47973;-48
2022/07/11 07:26:47;;;;;;;;;2.00;2.00;;;;;24.09;41.24;101813.69;4919240;28;45352;-50
2022/07/11 07:29:12;;;;;;;;;4.50;2.50;;;;;24.12;41.06;101815.31;4918435;28;46026;-51
2022/07/11 07:31:38;;;;;;;;;3.25;3.00;;;;;24.14;40.96;101818.72;4919062;28;45312;-55
2022/07/11 07:34:04;;;;;;;;;3.00;3.00;;;;;24.14;40.97;101806.38;4918981;28;45420;-41
2022/07/11 07:36:30;;;;;;;;;4.00;4.00;;;;;24.17;40.59;101815.91;4919275;28;45304;-46
2022/07/11 07:38:55;;;;;;;;;3.25;3.00;;;;;24.19;40.49;101814.06;4918610;28;46072;-44
2022/07/11 07:41:20;;;;;;;;;3.00;3.00;;;;;24.20;41.04;101813.09;4919177;28;45202;-44
2022/07/11 07:43:48;;;;;;;;;3.00;2.25;;;;;24.22;40.74;101816.50;4918821;28;45330;-46
2022/07/11 07:46:13;;;;;;;;;2.25;2.25;;;;;24.23;40.46;101812.91;4919017;28;45738;-46
2022/07/11 07:48:39;;;;;;;;;2.50;2.50;;;;;24.24;40.80;101820.81;4918759;28;45261;-46
2022/07/11 07:51:04;;;;;;;;;2.00;2.00;;;;;24.26;40.29;101812.75;4918496;28;45420;-44
2022/07/11 07:53:30;;;;;;;;;2.00;2.00;;;;;24.28;40.38;101824.13;4918594;28;45431;-46
2022/07/11 07:55:55;;;;;;;;;3.00;2.50;;;;;24.31;40.35;101815.97;4918639;28;45360;-45
2022/07/11 07:58:20;;;;;;;;;3.00;3.00;;;;;24.32;40.74;101823.00;4918477;28;51083;-48
2022/07/11 08:03:30;;;;;;;;;2.00;2.00;;;;;24.36;40.29;101821.06;4918320;28;45437;-45
2022/07/11 08:05:56;;;;;;;;;3.75;3.75;;;;;24.37;40.88;101812.13;4918275;28;45428;-44
2022/07/11 08:08:21;;;;;;;;;2.00;2.00;;;;;24.37;40.83;101810.34;4918414;28;45493;-45
2022/07/11 08:10:46;;;;;;;;;3.00;3.00;;;;;24.38;40.41;101817.38;4917701;28;58072;-46
2022/07/11 08:13:12;;;;;;;;;3.00;3.00;;;;;24.39;40.72;101811.13;4918099;28;45302;-49
2022/07/11 08:15:37;;;;;;;;;3.25;3.25;;;;;24.42;40.67;101819.84;4918574;28;45424;-47
2022/07/11 08:18:03;;;;;;;;;3.00;3.00;;;;;24.41;40.81;101816.34;4917757;28;45395;-44
2022/07/11 08:20:28;;;;;;;;;3.25;3.00;;;;;24.43;40.19;101818.88;4918019;28;45430;-45
2022/07/11 08:22:59;;;;;;;;;2.00;2.00;;;;;24.42;40.18;101803.97;4918384;28;45423;-45
2022/07/11 08:25:24;;;;;;;;;2.00;2.00;;;;;24.43;40.74;101802.97;4918287;28;45441;-44
2022/07/11 08:27:50;;;;;;;;;2.00;2.00;;;;;24.43;40.27;101798.56;4917639;28;58194;-49
2022/07/11 08:30:15;;;;;;;;;2.25;2.00;;;;;24.44;40.80;101794.09;4918175;28;45363;-46
2022/07/11 08:32:41;;;;;;;;;2.75;2.75;;;;;24.45;40.88;101788.72;4921527;28;45383;-45
2022/07/11 08:35:07;;;;;;;;;4.75;4.00;;;;;24.46;40.48;101794.88;4921370;28;45437;-47
2022/07/11 08:37:32;;;;;;;;;3.00;3.00;;;;;24.47;40.80;101791.28;4921215;28;45519;-45
2022/07/11 08:39:58;;;;;;;;;2.75;2.75;;;;;24.49;40.73;101778.81;4903644;28;45386;-47
2022/07/11 08:42:28;;;;;;;;;3.50;3.50;;;;;24.49;40.17;101774.34;4921565;28;45488;-44
2022/07/11 08:44:55;;;;;;;;;2.00;2.00;;;;;24.48;40.44;101777.09;4921668;28;45815;-45
2022/07/11 08:47:21;;;;;;;;;3.00;3.00;;;;;24.51;40.71;101774.28;4921455;28;45416;-49
2022/07/11 08:49:48;;;;;;;;;0.00;0.00;;;;;24.52;40.15;101773.34;4921197;28;45830;-44
2022/07/11 08:52:15;;;;;;;;;3.25;3.25;;;;;24.55;40.26;101773.13;4921331;28;45388;-51
2022/07/11 08:54:40;;;;;;;;;2.00;2.00;;;;;24.55;40.89;101767.84;4921214;28;45547;-43
2022/07/11 08:57:06;;;;;;;;;2.50;2.00;;;;;24.53;40.25;101772.38;4920660;28;46113;-45
2022/07/11 08:59:34;;;;;;;;;2.25;2.25;;;;;24.57;40.38;101771.25;4921041;28;45329;-45
2022/07/11 09:02:03;;;;;;;;;3.00;3.00;;;;;24.59;40.45;101769.38;4921081;28;45413;-54
2022/07/11 09:04:30;;;;;;;;;5.00;3.00;;;;;24.62;40.66;101766.56;4921213;28;45371;-54
2022/07/11 09:06:56;;;;;;;;;3.75;3.75;;;;;24.64;40.70;101762.00;4920609;28;45318;-56
2022/07/11 09:09:21;;;;;;;;;5.25;3.75;;;;;24.70;40.94;101771.41;4921145;28;45399;-47
2022/07/11 09:11:55;;;;;;;;;4.75;4.25;;;;;24.72;41.13;101764.22;4921140;28;45237;-49
2022/07/11 09:14:28;;;;;;;;;5.25;4.25;;;;;24.76;40.91;101764.91;4921571;28;45309;-42
2022/07/11 09:17:06;;;;;;;;;4.00;4.00;;;;;24.78;41.22;101760.38;4920605;28;46423;-44
2022/07/11 09:19:39;;;;;;;;;3.00;3.00;;;;;24.81;41.35;101766.34;4920998;28;45694;-45
2022/07/11 09:28:05;;;;;;;;;11.50;6.00;;;;;24.89;41.05;101754.44;4920040;28;45392;-43
2022/07/11 09:30:39;;;;;;;;;4.25;3.00;;;;;24.93;40.98;101750.66;4920836;28;45515;-50
2022/07/11 09:33:09;;;;;;;;;5.00;4.00;;;;;24.98;41.16;101754.72;4920506;28;45309;-45
2022/07/11 09:35:39;;;;;;;;;3.75;3.75;;;;;25.01;41.10;101743.94;4920093;28;45517;-41
2022/07/11 09:38:06;;;;;;;;;5.00;4.00;;;;;25.04;40.78;101750.84;4920414;28;47383;-40
2022/07/11 09:40:32;;;;;;;;;3.25;3.00;;;;;25.10;40.70;101745.19;4920525;28;45877;-41
2022/07/11 09:42:59;;;;;;;;;4.00;3.00;;;;;25.13;41.23;101745.00;4919239;28;45327;-41
2022/07/11 09:45:26;;;;;;;;;4.00;4.00;;;;;25.13;40.71;101737.06;4920759;28;45539;-43
2022/07/11 09:47:55;;;;;;;;;5.00;4.00;;;;;25.15;41.02;101740.44;4920751;28;46249;-43
2022/07/11 09:50:23;;;;;;;;;4.00;4.00;;;;;25.17;40.88;101743.03;4920844;28;45257;-42
2022/07/11 09:53:12;;;;;;;;;5.25;5.25;;;;;25.17;40.83;101741.22;4920899;28;45805;-43
2022/07/11 09:55:41;;;;;;;;;4.25;4.25;;;;;25.18;41.21;101736.78;4920843;28;45388;-44
2022/07/11 09:58:11;;;;;;;;;7.00;4.50;;;;;25.19;40.53;101738.44;4920088;28;45296;-45
2022/07/11 10:00:38;;;;;;;;;6.00;4.50;;;;;25.17;40.53;101741.22;4920384;28;45339;-40
2022/07/11 10:03:06;;;;;;;;;4.00;4.00;;;;;25.21;40.69;101741.03;4920266;28;45447;-40
2022/07/11 10:05:32;;;;;;;;;5.50;5.50;;;;;25.20;41.54;101732.19;4920514;28;45514;-45
2022/07/11 10:07:58;;;;;;;;;4.50;4.50;;;;;25.22;41.89;101735.63;4919967;28;46997;-44
2022/07/11 10:10:25;;;;;;;;;4.50;4.00;;;;;25.23;41.74;101739.97;4920346;28;45746;-45
2022/07/11 10:12:54;;;;;;;;;4.50;4.50;;;;;25.23;41.21;101734.69;4920682;28;45431;-41
2022/07/11 10:15:23;;;;;;;;;4.00;3.00;;;;;25.23;40.87;101731.19;4920805;28;45285;-47
2022/07/11 10:18:13;;;;;;;;;6.00;3.00;;;;;25.25;40.91;101737.22;4920558;28;47186;-43
2022/07/11 10:20:43;;;;;;;;;3.00;3.00;;;;;25.25;41.17;101737.22;4919966;28;45391;-45
2022/07/11 10:23:30;;;;;;;;;4.75;4.00;;;;;25.24;40.92;101731.06;4920097;28;45842;-43
2022/07/11 10:26:13;;;;;;;;;6.00;4.50;;;;;25.26;41.51;101741.59;4920020;28;45406;-41
2022/07/11 10:29:01;;;;;;;;;4.00;4.00;;;;;25.27;41.80;101732.69;4919818;28;46221;-42
2022/07/11 10:31:30;;;;;;;;;4.00;4.00;;;;;25.29;41.80;101731.66;4919257;28;45324;-42
2022/07/11 10:34:04;;;;;;;;;4.00;4.00;;;;;25.29;41.61;101742.28;4919595;28;45263;-42
2022/07/11 10:36:32;;;;;;;;;3.50;3.50;;;;;25.28;41.36;101743.22;4919843;28;45308;-46
2022/07/11 10:39:17;;;;;;;;;5.50;3.75;;;;;25.25;41.25;101740.75;4919139;28;45748;-42
2022/07/11 10:41:43;;;;;;;;;5.50;4.50;;;;;25.23;41.25;101742.63;4919511;28;45750;-44
2022/07/11 10:44:09;;;;;;;;;5.00;3.25;;;;;25.23;41.96;101741.78;4919332;28;45241;-43
2022/07/11 10:46:35;;;;;;;;;5.75;4.00;;;;;25.20;41.78;101748.13;4919775;28;45537;-42
2022/07/11 10:49:15;;;;;;;;;4.50;4.50;;;;;25.21;41.84;101752.47;4919058;28;46266;-41
2022/07/11 10:51:44;;;;;;;;;3.00;3.00;;;;;25.18;41.84;101742.09;4919558;28;45793;-48
2022/07/11 10:54:41;;;;;;;;;4.50;4.50;;;;;25.18;41.29;101744.72;4918841;28;45467;-42
2022/07/11 10:57:23;;;;;;;;;3.25;3.00;;;;;25.15;41.42;101745.75;4884809;28;45418;-43
2022/07/11 10:59:59;;;;;;;;;5.50;3.75;;;;;25.16;41.18;101738.66;4919547;28;45896;-42
2022/07/11 11:02:25;;;;;;;;;4.25;3.00;;;;;25.15;41.63;101740.44;4919257;28;45764;-43
2022/07/11 11:04:58;;;;;;;;;3.25;3.00;;;;;25.15;41.40;101736.94;4919699;28;45366;-42
2022/07/11 11:07:35;;;;;;;;;2.50;2.00;;;;;25.14;41.09;101745.84;4919783;28;45797;-42
2022/07/11 11:10:05;;;;;;;;;3.00;1.50;;;;;25.13;41.05;101731.75;4918797;28;47039;-44
2022/07/11 11:13:05;;;;;;;;;3.00;3.00;;;;;25.13;41.50;101731.75;4919199;28;45632;-42
2022/07/11 11:15:49;;;;;;;;;2.75;2.75;;;;;25.12;41.04;101719.44;4919262;28;45455;-45
2022/07/11 11:18:36;;;;;;;;;2.75;2.75;;;;;25.11;40.87;101723.03;4902192;28;45179;-42
2022/07/11 11:21:07;;;;;;;;;3.00;3.00;;;;;25.12;41.27;101723.88;4917911;28;45416;-42
2022/07/11 11:23:41;;;;;;;;;3.00;3.00;;;;;25.10;40.99;101709.84;4919028;28;45193;-44
2022/07/11 11:26:08;;;;;;;;;3.50;3.25;;;;;25.11;41.32;101716.84;4918972;28;45459;-42
2022/07/11 11:28:35;;;;;;;;;4.00;3.00;;;;;25.10;40.88;101721.31;4919292;28;45483;-42
2022/07/11 11:31:04;;;;;;;;;4.50;4.00;;;;;25.11;40.89;101717.72;4918594;28;45408;-48
2022/07/11 11:33:33;;;;;;;;;2.25;2.25;;;;;25.11;41.27;101715.06;4919060;28;45540;-46